createdAt,value
2018-07-31T00:02:22.405Z,13.93
2018-07-31T00:04:49.460Z,13.18
2018-07-31T00:07:16.615Z,14.50
2018-07-31T00:09:43.654Z,13.48
2018-07-31T00:12:10.704Z,12.93
2018-07-31T00:14:37.855Z,12.73
2018-07-31T00:17:04.908Z,12.85
2018-07-31T00:19:32.259Z,12.63
2018-07-31T00:21:59.409Z,13.90
2018-07-31T00:24:26.458Z,13.88
2018-07-31T00:26:53.512Z,13.80
2018-07-31T00:29:20.761Z,13.88
2018-07-31T00:31:47.815Z,13.35
2018-07-31T00:34:14.860Z,13.32
2018-07-31T00:36:41.906Z,13.88
2018-07-31T00:39:09.059Z,13.65
2018-07-31T00:41:36.228Z,13.65
2018-07-31T00:44:03.669Z,13.55
2018-07-31T00:46:30.726Z,13.30
2018-07-31T00:48:57.785Z,13.90
2018-07-31T00:51:25.225Z,13.88
2018-07-31T00:53:52.274Z,14.02
2018-07-31T00:56:19.327Z,13.88
2018-07-31T00:58:46.368Z,14.13
2018-07-31T01:01:13.518Z,14.15
2018-07-31T01:03:40.671Z,13.95
2018-07-31T01:06:07.718Z,13.93
2018-07-31T01:08:34.772Z,14.13
2018-07-31T01:11:01.828Z,14.00
2018-07-31T01:13:28.866Z,13.93
2018-07-31T01:15:56.839Z,14.90
2018-07-31T01:18:23.883Z,14.18
2018-07-31T01:20:50.931Z,15.18
2018-07-31T01:23:18.084Z,14.93
2018-07-31T01:25:45.136Z,14.98
2018-07-31T01:28:12.384Z,14.32
2018-07-31T01:30:39.535Z,15.98
2018-07-31T01:33:06.589Z,15.07
2018-07-31T01:35:33.633Z,15.35
2018-07-31T01:38:00.682Z,15.40
2018-07-31T01:40:27.735Z,15.82
2018-07-31T01:42:54.778Z,16.12
2018-07-31T01:45:21.826Z,16.00
2018-07-31T01:47:48.881Z,15.77
2018-07-31T01:50:16.032Z,15.82
2018-07-31T01:52:43.076Z,17.02
2018-07-31T01:55:10.127Z,16.58
2018-07-31T01:57:37.275Z,15.85
2018-07-31T02:00:04.328Z,15.32
2018-07-31T02:02:31.481Z,15.35
2018-07-31T02:04:58.523Z,15.07
2018-07-31T02:07:25.674Z,15.43
2018-07-31T02:09:52.723Z,14.98
2018-07-31T02:12:19.778Z,15.20
2018-07-31T02:14:46.821Z,16.45
2018-07-31T02:17:13.892Z,16.15
2018-07-31T02:19:40.923Z,16.23
2018-07-31T02:22:15.754Z,15.57
2018-07-31T02:24:42.797Z,16.05
2018-07-31T02:27:10.768Z,16.73
2018-07-31T02:29:37.920Z,15.50
2018-07-31T02:32:04.972Z,16.65
2018-07-31T02:34:33.247Z,16.25
2018-07-31T02:37:00.293Z,16.70
2018-07-31T02:39:27.348Z,16.12
2018-07-31T02:41:54.395Z,16.33
2018-07-31T02:44:21.439Z,15.18
2018-07-31T02:46:48.516Z,15.15
2018-07-31T02:49:15.645Z,16.20
2018-07-31T02:51:42.690Z,15.52
2018-07-31T02:54:12.604Z,16.45
2018-07-31T02:56:39.960Z,16.45
2018-07-31T02:59:07.627Z,16.85
2018-07-31T03:01:35.089Z,16.50
2018-07-31T03:04:02.236Z,14.82
2018-07-31T03:06:29.484Z,16.17
2018-07-31T03:08:56.944Z,15.80
2018-07-31T03:11:23.997Z,16.17
2018-07-31T03:13:51.040Z,16.80
2018-07-31T03:16:18.064Z,16.12
2018-07-31T03:18:45.143Z,15.68
2018-07-31T03:21:12.391Z,17.30
2018-07-31T03:23:39.444Z,17.15
2018-07-31T03:26:06.487Z,17.52
2018-07-31T03:28:33.537Z,16.05
2018-07-31T03:31:00.591Z,17.37
2018-07-31T03:33:27.635Z,17.60
2018-07-31T03:35:54.684Z,17.50
2018-07-31T03:38:21.738Z,16.15
2018-07-31T03:40:48.785Z,15.10
2018-07-31T03:43:15.831Z,14.90
2018-07-31T03:45:42.883Z,15.90
2018-07-31T03:48:09.929Z,15.88
2018-07-31T03:50:36.975Z,17.87
2018-07-31T03:53:04.124Z,16.65
2018-07-31T03:55:31.319Z,15.45
2018-07-31T03:57:58.427Z,16.20
2018-07-31T04:00:25.481Z,16.20
2018-07-31T04:02:52.632Z,17.12
2018-07-31T04:05:19.713Z,15.90
2018-07-31T04:07:46.933Z,16.00
2018-07-31T04:10:14.182Z,16.92
2018-07-31T04:12:41.235Z,17.80
2018-07-31T04:15:09.509Z,17.27
2018-07-31T04:17:36.659Z,15.18
2018-07-31T04:20:03.711Z,17.40
2018-07-31T04:22:31.683Z,15.65
2018-07-31T04:24:58.727Z,16.00
2018-07-31T04:27:25.776Z,15.68
2018-07-31T04:29:53.234Z,16.65
2018-07-31T04:32:20.288Z,16.60
2018-07-31T04:34:47.329Z,16.27
2018-07-31T04:37:14.379Z,16.58
2018-07-31T04:42:15.137Z,16.52
2018-07-31T04:44:42.188Z,16.48
2018-07-31T04:47:09.510Z,15.77
2018-07-31T04:49:36.586Z,16.23
2018-07-31T04:52:03.640Z,16.23
2018-07-31T04:54:30.683Z,15.63
2018-07-31T04:56:57.833Z,15.73
2018-07-31T04:59:24.882Z,16.30
2018-07-31T05:01:51.935Z,16.10
2018-07-31T05:04:19.097Z,15.88
2018-07-31T05:06:47.261Z,15.13
2018-07-31T05:09:14.311Z,15.63
2018-07-31T05:11:43.482Z,15.52
2018-07-31T05:14:10.554Z,15.48
2018-07-31T05:16:37.608Z,15.85
2018-07-31T05:19:04.651Z,15.45
2018-07-31T05:21:32.005Z,15.70
2018-07-31T05:23:59.259Z,16.10
2018-07-31T05:26:26.411Z,16.60
2018-07-31T05:28:53.462Z,15.38
2018-07-31T05:31:23.355Z,15.73
2018-07-31T05:33:50.935Z,15.00
2018-07-31T05:36:18.198Z,15.25
2018-07-31T05:38:47.803Z,15.25
2018-07-31T05:41:14.955Z,15.20
2018-07-31T05:43:41.997Z,15.70
2018-07-31T05:46:09.066Z,14.65
2018-07-31T05:48:48.919Z,15.43
2018-07-31T05:51:16.968Z,14.52
2018-07-31T05:53:44.019Z,14.52
2018-07-31T05:56:11.168Z,14.70
2018-07-31T05:58:38.422Z,14.73
2018-07-31T06:01:05.470Z,14.50
2018-07-31T06:03:32.509Z,14.10
2018-07-31T06:05:59.568Z,14.07
2018-07-31T06:08:27.845Z,13.62
2018-07-31T06:10:54.898Z,14.52
2018-07-31T06:13:21.941Z,13.82
2018-07-31T06:15:49.201Z,13.10
2018-07-31T06:18:16.244Z,13.65
2018-07-31T06:20:43.292Z,12.98
2018-07-31T06:23:10.394Z,13.18
2018-07-31T06:25:37.462Z,14.25
2018-07-31T06:28:04.694Z,13.27
2018-07-31T06:30:31.847Z,13.50
2018-07-31T06:32:58.960Z,13.07
2018-07-31T06:35:26.146Z,13.77
2018-07-31T06:37:53.161Z,12.40
2018-07-31T06:40:21.415Z,13.20
2018-07-31T06:42:48.519Z,12.52
2018-07-31T06:45:16.286Z,12.48
2018-07-31T06:47:43.436Z,12.23
2018-07-31T06:50:10.490Z,12.60
2018-07-31T06:52:38.563Z,12.07
2018-07-31T06:55:05.606Z,12.60
2018-07-31T06:57:32.655Z,12.68
2018-07-31T06:59:59.806Z,12.05
2018-07-31T07:02:26.860Z,11.70
2018-07-31T07:04:53.904Z,11.68
2018-07-31T07:07:20.952Z,11.57
2018-07-31T07:09:48.008Z,11.93
2018-07-31T07:12:15.356Z,11.70
2018-07-31T07:14:42.404Z,11.38
2018-07-31T07:17:09.458Z,11.80
2018-07-31T07:19:36.500Z,11.55
2018-07-31T07:22:06.643Z,11.77
2018-07-31T07:24:33.676Z,11.75
2018-07-31T07:27:00.721Z,11.48
2018-07-31T07:29:27.770Z,11.35
2018-07-31T07:31:54.919Z,11.48
2018-07-31T07:34:22.173Z,11.73
2018-07-31T07:36:49.221Z,11.55
2018-07-31T07:39:16.275Z,11.88
2018-07-31T07:41:43.426Z,11.73
2018-07-31T07:44:10.468Z,11.15
2018-07-31T07:46:37.729Z,10.98
2018-07-31T07:49:04.882Z,11.95
2018-07-31T07:51:31.922Z,10.88
2018-07-31T07:53:59.292Z,10.93
2018-07-31T07:56:26.532Z,11.30
2018-07-31T07:58:53.790Z,12.18
2018-07-31T08:01:21.446Z,12.20
2018-07-31T08:03:48.534Z,11.05
2018-07-31T08:06:15.484Z,11.55
2018-07-31T08:08:54.444Z,10.75
2018-07-31T08:11:22.232Z,10.13
2018-07-31T08:13:49.286Z,10.80
2018-07-31T08:16:17.666Z,11.02
2018-07-31T08:18:44.817Z,11.70
2018-07-31T08:21:12.065Z,10.48
2018-07-31T08:23:39.121Z,11.80
2018-07-31T08:26:06.149Z,11.25
2018-07-31T08:28:33.212Z,10.90
2018-07-31T08:31:00.264Z,10.57
2018-07-31T08:33:27.319Z,10.55
2018-07-31T08:35:54.567Z,10.65
2018-07-31T08:38:21.610Z,10.70
2018-07-31T08:40:48.660Z,11.38
2018-07-31T08:43:15.810Z,9.75
2018-07-31T08:45:43.063Z,9.55
2018-07-31T08:48:10.111Z,9.75
2018-07-31T08:50:37.164Z,9.45
2018-07-31T08:53:04.208Z,10.30
2018-07-31T08:55:31.257Z,9.85
2018-07-31T08:57:58.310Z,10.40
2018-07-31T09:00:25.353Z,8.98
2018-07-31T09:02:52.550Z,9.57
2018-07-31T09:05:19.656Z,9.35
2018-07-31T09:07:46.704Z,9.60
2018-07-31T09:10:13.975Z,9.38
2018-07-31T09:12:41.008Z,9.15
2018-07-31T09:15:08.065Z,8.88
2018-07-31T09:17:35.242Z,8.93
2018-07-31T09:20:02.469Z,8.98
2018-07-31T09:22:29.518Z,8.80
2018-07-31T09:24:56.564Z,8.52
2018-07-31T09:27:23.912Z,9.15
2018-07-31T09:29:51.677Z,9.27
2018-07-31T09:32:18.764Z,8.80
2018-07-31T09:34:45.791Z,8.77
2018-07-31T09:37:12.926Z,8.65
2018-07-31T09:39:39.975Z,8.70
2018-07-31T09:42:07.027Z,9.35
2018-07-31T09:44:34.888Z,9.40
2018-07-31T09:47:02.041Z,9.45
2018-07-31T09:49:29.093Z,9.27
2018-07-31T09:51:56.136Z,9.05
2018-07-31T09:54:23.186Z,8.13
2018-07-31T09:56:50.238Z,7.87
2018-07-31T09:59:17.284Z,7.55
2018-07-31T10:01:44.335Z,7.95
2018-07-31T10:04:12.099Z,8.05
2018-07-31T10:06:39.881Z,8.30
2018-07-31T10:09:06.914Z,8.07
2018-07-31T10:11:33.958Z,7.53
2018-07-31T10:14:01.009Z,7.55
2018-07-31T10:16:28.060Z,7.70
2018-07-31T10:18:55.102Z,8.00
2018-07-31T10:21:22.150Z,7.72
2018-07-31T10:23:49.406Z,7.78
2018-07-31T10:26:16.452Z,7.70
2018-07-31T10:28:43.603Z,7.80
2018-07-31T10:31:10.874Z,7.97
2018-07-31T10:33:38.977Z,7.40
2018-07-31T10:36:05.982Z,7.55
2018-07-31T10:38:33.484Z,7.87
2018-07-31T10:41:00.690Z,8.30
2018-07-31T10:43:27.838Z,8.20
2018-07-31T10:45:54.886Z,8.85
2018-07-31T10:48:22.039Z,8.52
2018-07-31T10:50:50.255Z,8.60
2018-07-31T10:53:17.261Z,7.65
2018-07-31T10:55:44.313Z,7.97
2018-07-31T10:58:11.487Z,8.65
2018-07-31T11:00:38.406Z,7.65
2018-07-31T11:03:05.524Z,7.82
2018-07-31T11:05:32.611Z,8.65
2018-07-31T11:07:59.759Z,7.60
2018-07-31T11:10:26.931Z,8.63
2018-07-31T11:12:53.957Z,8.25
2018-07-31T11:15:21.104Z,7.97
2018-07-31T11:17:48.254Z,8.20
2018-07-31T11:20:15.303Z,7.87
2018-07-31T11:22:42.458Z,7.78
2018-07-31T11:25:09.554Z,7.10
2018-07-31T11:27:36.601Z,7.22
2018-07-31T11:30:03.701Z,6.55
2018-07-31T11:32:30.750Z,7.05
2018-07-31T11:34:58.001Z,7.50
2018-07-31T11:37:25.050Z,7.50
2018-07-31T11:39:52.103Z,7.62
2018-07-31T11:42:19.147Z,7.40
2018-07-31T11:44:46.712Z,6.95
2018-07-31T11:47:14.885Z,6.75
2018-07-31T11:49:41.944Z,6.43
2018-07-31T11:52:09.284Z,7.03
2018-07-31T11:54:36.639Z,7.05
2018-07-31T11:57:05.569Z,6.60
2018-07-31T11:59:32.787Z,6.90
2018-07-31T12:02:00.291Z,7.12
2018-07-31T12:04:28.831Z,7.00
2018-07-31T12:06:55.874Z,6.70
2018-07-31T12:09:24.259Z,6.78
2018-07-31T12:11:51.305Z,6.55
2018-07-31T12:14:19.278Z,7.05
2018-07-31T12:16:46.323Z,6.90
2018-07-31T12:19:13.375Z,7.30
2018-07-31T12:21:40.826Z,6.97
2018-07-31T12:24:07.879Z,6.50
2018-07-31T12:26:34.922Z,6.80
2018-07-31T12:29:02.185Z,6.78
2018-07-31T12:31:29.330Z,7.22
2018-07-31T12:33:57.296Z,7.20
2018-07-31T12:36:24.343Z,7.47
2018-07-31T12:38:51.800Z,7.72
2018-07-31T12:41:18.855Z,7.65
2018-07-31T12:43:46.348Z,7.60
2018-07-31T12:46:13.770Z,7.87
2018-07-31T12:48:41.473Z,7.65
2018-07-31T12:51:10.626Z,7.93
2018-07-31T12:53:37.614Z,7.65
2018-07-31T12:56:05.445Z,8.07
2018-07-31T12:58:32.593Z,8.02
2018-07-31T13:00:59.745Z,7.80
2018-07-31T13:03:26.735Z,8.30
2018-07-31T13:05:53.765Z,8.35
2018-07-31T13:08:20.781Z,8.73
2018-07-31T13:10:47.830Z,8.52
2018-07-31T13:15:47.659Z,8.35
2018-07-31T13:18:15.634Z,8.45
2018-07-31T13:20:43.803Z,8.63
2018-07-31T13:23:10.794Z,9.40
2018-07-31T13:25:38.872Z,8.98
2018-07-31T13:28:07.310Z,9.23
2018-07-31T13:30:34.556Z,9.15
2018-07-31T13:33:01.609Z,9.13
2018-07-31T13:35:28.651Z,9.30
2018-07-31T13:37:55.640Z,9.18
2018-07-31T13:40:22.853Z,9.48
2018-07-31T13:42:49.905Z,9.50
2018-07-31T13:45:16.946Z,9.02
2018-07-31T13:47:44.097Z,9.15
2018-07-31T13:50:11.249Z,9.70
2018-07-31T13:52:38.447Z,9.75
2018-07-31T13:55:06.089Z,9.75
2018-07-31T13:57:33.114Z,10.07
2018-07-31T14:00:00.392Z,9.57
2018-07-31T14:02:27.614Z,10.43
2018-07-31T14:04:54.666Z,9.85
2018-07-31T14:07:22.599Z,9.88
2018-07-31T14:09:50.604Z,10.10
2018-07-31T14:12:17.606Z,10.10
2018-07-31T14:14:44.705Z,9.80
2018-07-31T14:17:11.747Z,10.00
2018-07-31T14:19:38.897Z,10.68
2018-07-31T14:22:05.946Z,10.40
2018-07-31T14:24:33.005Z,9.55
2018-07-31T14:27:00.041Z,10.40
2018-07-31T14:29:27.805Z,10.02
2018-07-31T14:31:54.855Z,10.77
2018-07-31T14:34:22.006Z,10.07
2018-07-31T14:36:49.059Z,9.82
2018-07-31T14:39:17.438Z,10.80
2018-07-31T14:41:44.483Z,10.40
2018-07-31T14:44:11.529Z,10.32
2018-07-31T14:46:38.582Z,10.10
2018-07-31T14:49:05.626Z,9.70
2018-07-31T14:51:32.673Z,10.57
2018-07-31T14:53:59.833Z,10.32
2018-07-31T14:56:27.588Z,9.77
2018-07-31T14:58:54.741Z,10.23
2018-07-31T15:01:21.890Z,10.27
2018-07-31T15:03:49.808Z,9.82
2018-07-31T15:06:16.810Z,10.10
2018-07-31T15:08:44.059Z,9.95
2018-07-31T15:11:11.196Z,10.15
2018-07-31T15:13:39.082Z,10.23
2018-07-31T15:16:06.334Z,10.18
2018-07-31T15:18:33.384Z,10.93
2018-07-31T15:21:01.390Z,10.25
2018-07-31T15:23:28.375Z,9.93
2018-07-31T15:25:55.449Z,10.07
2018-07-31T15:28:23.619Z,10.38
2018-07-31T15:30:50.671Z,10.63
2018-07-31T15:33:17.657Z,10.80
2018-07-31T15:35:45.449Z,11.40
2018-07-31T15:38:14.059Z,10.70
2018-07-31T15:40:41.427Z,9.90
2018-07-31T15:43:08.415Z,10.32
2018-07-31T15:45:35.357Z,10.88
2018-07-31T15:48:02.600Z,11.43
2018-07-31T15:50:32.989Z,10.75
2018-07-31T15:53:00.040Z,10.80
2018-07-31T15:55:27.188Z,10.38
2018-07-31T15:57:54.442Z,10.20
2018-07-31T16:00:22.677Z,11.02
2018-07-31T16:02:49.870Z,11.40
2018-07-31T16:05:17.021Z,11.65
2018-07-31T16:07:44.273Z,11.57
2018-07-31T16:10:11.321Z,10.85
2018-07-31T16:12:38.265Z,11.25
2018-07-31T16:15:05.314Z,10.05
2018-07-31T16:35:31.268Z,11.45
2018-07-31T16:37:58.311Z,11.73
2018-07-31T16:40:26.591Z,12.35
2018-07-31T16:42:54.210Z,11.63
2018-07-31T16:45:21.197Z,11.70
2018-07-31T16:47:48.557Z,11.55
2018-07-31T16:50:15.601Z,12.00
2018-07-31T16:52:42.757Z,11.65
2018-07-31T16:55:10.105Z,11.60
2018-07-31T16:57:37.925Z,12.25
2018-07-31T17:07:55.044Z,11.55
2018-07-31T17:10:22.711Z,12.07
2018-07-31T17:12:49.833Z,12.02
2018-07-31T17:15:17.213Z,11.35
2018-07-31T17:20:21.549Z,11.85
2018-07-31T17:22:48.800Z,12.02
2018-07-31T17:25:16.211Z,11.68
2018-07-31T17:27:43.307Z,11.90
2018-07-31T17:30:10.457Z,12.02
2018-07-31T17:32:37.873Z,12.57
2018-07-31T17:35:05.068Z,12.05
2018-07-31T17:37:32.217Z,12.07
2018-07-31T17:39:59.272Z,12.35
2018-07-31T17:42:26.314Z,13.32
2018-07-31T17:44:53.572Z,12.20
2018-07-31T17:47:20.614Z,12.43
2018-07-31T17:49:47.663Z,13.25
2018-07-31T17:52:14.916Z,12.80
2018-07-31T17:54:42.175Z,11.63
2018-07-31T17:57:09.326Z,12.77
2018-07-31T17:59:36.578Z,13.30
2018-07-31T18:02:04.086Z,12.43
2018-07-31T18:04:32.008Z,12.20
2018-07-31T18:06:59.052Z,17.40
2018-07-31T18:09:26.205Z,14.18
2018-07-31T18:11:53.248Z,13.10
2018-07-31T18:14:21.166Z,12.13
2018-07-31T18:16:48.271Z,12.43
2018-07-31T18:19:15.530Z,12.75
2018-07-31T18:21:43.182Z,12.43
2018-07-31T18:24:10.297Z,12.50
2018-07-31T18:26:37.953Z,11.90
2018-07-31T18:29:05.261Z,13.45
2018-07-31T18:31:32.708Z,12.30
2018-07-31T18:33:59.756Z,13.40
2018-07-31T18:36:27.828Z,12.80
2018-07-31T18:38:54.882Z,13.18
2018-07-31T18:41:22.088Z,13.65
2018-07-31T18:43:50.304Z,12.90
2018-07-31T18:46:17.459Z,13.13
2018-07-31T18:48:45.328Z,12.88
2018-07-31T18:51:14.786Z,13.02
2018-07-31T18:53:41.879Z,12.80
2018-07-31T18:56:09.031Z,13.18
2018-07-31T18:58:36.082Z,13.62
2018-07-31T19:01:04.292Z,14.35
2018-07-31T19:03:31.868Z,14.15
2018-07-31T19:05:59.546Z,14.48
2018-07-31T19:08:27.085Z,13.75
2018-07-31T19:10:54.084Z,12.90
2018-07-31T19:13:22.014Z,14.13
2018-07-31T19:15:49.365Z,13.13
2018-07-31T19:18:16.923Z,13.80
2018-07-31T19:20:44.126Z,13.20
2018-07-31T19:23:11.278Z,14.23
2018-07-31T19:25:38.320Z,12.63
2018-07-31T19:28:07.225Z,14.00
2018-07-31T19:30:35.084Z,13.55
2018-07-31T19:33:02.587Z,14.13
2018-07-31T19:35:29.893Z,13.88
2018-07-31T19:37:57.146Z,15.18
2018-07-31T19:40:24.518Z,15.15
2018-07-31T19:42:51.865Z,15.23
2018-07-31T19:45:19.214Z,15.23
2018-07-31T19:47:46.473Z,15.88
2018-07-31T19:50:15.257Z,15.98
2018-07-31T19:52:42.565Z,15.18
2018-07-31T19:55:10.927Z,13.50
2018-07-31T19:57:38.914Z,14.52
2018-07-31T20:00:08.985Z,14.63
2018-07-31T20:02:36.337Z,13.62
2018-07-31T20:05:03.951Z,16.52
2018-07-31T20:07:31.053Z,17.42
2018-07-31T20:09:58.204Z,15.35
2018-07-31T20:12:27.530Z,15.02
2018-07-31T20:14:54.753Z,15.32
2018-07-31T20:17:23.236Z,16.98
2018-07-31T20:19:51.615Z,18.10
2018-07-31T20:22:18.767Z,20.37
2018-07-31T20:24:46.945Z,17.67
2018-07-31T20:27:14.099Z,21.58
2018-07-31T20:29:41.141Z,20.83
2018-07-31T20:32:08.398Z,21.23
2018-07-31T20:34:35.551Z,17.90
2018-07-31T20:37:05.021Z,19.98
2018-07-31T20:39:32.101Z,20.10
2018-07-31T20:41:59.250Z,19.75
2018-07-31T20:44:26.710Z,22.13
2018-07-31T20:46:53.914Z,20.90
2018-07-31T20:49:21.113Z,20.73
2018-07-31T20:51:48.880Z,20.70
2018-07-31T21:02:37.290Z,19.80
2018-07-31T22:14:05.784Z,27.48
2018-07-31T23:27:42.390Z,18.05
